Time;durP1;ratioP1;P1;durP2;ratioP2;P2;SDS_P1;SDS_P2;PMS_P1;PMS_P2;Temp;Humidity;BMP_temperature;BMP_pressure;BME280_temperature;BME280_humidity;BME280_pressure;Samples;Min_cycle;Max_cycle;Signal;HPM_P1;HPM_P2
2021/01/29 00:00:22;;;;;;;18.40;1.95;;;13.70;96.90;;;;;;4976908;28;20406;-75
2021/01/29 00:02:50;;;;;;;23.70;2.55;;;13.60;96.90;;;;;;4978660;28;20113;-75
2021/01/29 00:05:17;;;;;;;22.23;2.40;;;13.60;96.90;;;;;;4977936;28;20038;-75
2021/01/29 00:07:43;;;;;;;20.48;2.00;;;13.60;96.90;;;;;;4977805;28;20070;-75
2021/01/29 00:10:10;;;;;;;22.50;2.58;;;13.70;96.90;;;;;;4977965;28;20128;-75
2021/01/29 00:12:36;;;;;;;21.10;2.42;;;13.50;96.80;;;;;;4978288;28;20110;-75
2021/01/29 00:15:05;;;;;;;19.83;2.40;;;13.50;96.80;;;;;;4977706;28;20125;-75
2021/01/29 00:17:31;;;;;;;23.90;2.55;;;13.60;96.80;;;;;;4977943;28;20158;-75
2021/01/29 00:19:57;;;;;;;20.10;2.33;;;13.60;96.70;;;;;;4980919;28;20145;-75
2021/01/29 00:22:22;;;;;;;23.38;2.83;;;13.80;96.60;;;;;;4996895;28;20042;-75
2021/01/29 00:24:48;;;;;;;19.33;2.85;;;13.30;96.60;;;;;;4979980;28;20041;-75
2021/01/29 00:27:14;;;;;;;25.45;2.83;;;13.40;96.60;;;;;;4996164;28;20444;-75
2021/01/29 00:29:40;;;;;;;19.60;2.60;;;13.50;96.70;;;;;;4997287;28;20070;-75
2021/01/29 00:32:06;;;;;;;23.92;2.72;;;13.80;96.70;;;;;;4996656;28;20036;-75
2021/01/29 00:34:31;;;;;;;22.92;2.67;;;13.50;96.40;;;;;;4997242;28;20053;-75
2021/01/29 00:36:57;;;;;;;25.33;3.08;;;13.40;96.40;;;;;;4996649;28;20044;-74
2021/01/29 00:39:23;;;;;;;26.20;3.22;;;13.30;96.40;;;;;;4997320;28;20049;-76
2021/01/29 00:41:49;;;;;;;26.90;3.08;;;13.50;96.40;;;;;;4996671;28;20030;-75
2021/01/29 00:44:15;;;;;;;24.60;3.38;;;13.50;96.40;;;;;;4995909;28;20050;-75
2021/01/29 00:46:40;;;;;;;24.33;3.13;;;13.20;96.30;;;;;;4997165;28;20038;-75
2021/01/29 00:49:06;;;;;;;26.52;3.42;;;13.30;96.00;;;;;;4996250;28;20128;-75
2021/01/29 00:51:32;;;;;;;28.85;3.45;;;13.10;95.90;;;;;;4996061;28;20049;-75
2021/01/29 00:53:58;;;;;;;28.95;3.40;;;12.90;95.80;;;;;;4996566;28;20588;-75
2021/01/29 00:56:23;;;;;;;31.75;3.85;;;13.10;95.80;;;;;;4996177;28;20038;-75
2021/01/29 00:58:49;;;;;;;33.40;4.10;;;12.80;95.90;;;;;;4996485;28;20398;-75
2021/01/29 01:01:15;;;;;;;33.55;3.83;;;13.00;96.30;;;;;;4994995;28;20038;-74
2021/01/29 01:03:41;;;;;;;35.30;3.75;;;13.10;96.30;;;;;;4996252;28;20133;-75
2021/01/29 01:06:07;;;;;;;27.73;3.40;;;13.10;96.30;;;;;;4996292;28;20038;-75
2021/01/29 01:08:33;;;;;;;30.88;3.67;;;13.10;96.30;;;;;;4996493;28;20046;-75
2021/01/29 01:10:59;;;;;;;31.95;3.08;;;13.00;96.10;;;;;;4996264;28;20105;-75
2021/01/29 01:13:24;;;;;;;28.30;3.53;;;13.10;95.90;;;;;;4995859;28;20153;-75
2021/01/29 01:15:50;;;;;;;26.63;3.47;;;12.90;95.90;;;;;;4996348;28;20506;-75
2021/01/29 01:18:16;;;;;;;24.98;3.40;;;12.80;96.00;;;;;;4978721;28;20089;-75
2021/01/29 01:20:42;;;;;;;24.58;3.50;;;12.90;95.90;;;;;;4996019;28;20121;-75
2021/01/29 01:23:08;;;;;;;31.25;4.13;;;12.60;95.90;;;;;;4995951;28;20042;-75
2021/01/29 01:25:33;;;;;;;34.92;4.00;;;12.80;96.10;;;;;;4996225;28;20114;-75
2021/01/29 01:27:59;;;;;;;27.63;3.75;;;12.90;96.10;;;;;;4995725;28;20046;-75
2021/01/29 01:30:35;;;;;;;28.27;3.70;;;12.90;96.30;;;;;;4995767;28;20046;-74
2021/01/29 01:33:01;;;;;;;26.10;3.55;;;12.90;96.00;;;;;;4995580;28;20038;-75
2021/01/29 01:35:27;;;;;;;34.33;3.50;;;13.10;96.10;;;;;;4995928;28;20053;-75
2021/01/29 01:37:54;;;;;;;30.23;3.60;;;12.90;95.80;;;;;;4995789;28;20125;-75
2021/01/29 01:40:27;;;;;;;29.00;4.15;;;12.80;95.90;;;;;;4996111;28;20185;-75
2021/01/29 01:42:52;;;;;;;28.77;3.88;;;12.90;95.80;;;;;;4994640;28;20502;-75
2021/01/29 01:45:27;;;;;;;29.83;3.63;;;12.80;95.70;;;;;;4995115;28;20034;-75
2021/01/29 01:48:01;;;;;;;26.10;3.75;;;12.70;95.60;;;;;;4995567;28;20030;-75
2021/01/29 01:50:42;;;;;;;37.83;4.63;;;12.60;95.60;;;;;;4995199;28;20054;-75
2021/01/29 01:53:32;;;;;;;32.50;3.90;;;13.00;95.90;;;;;;4995095;28;20270;-75
2021/01/29 01:56:07;;;;;;;31.73;4.03;;;12.60;95.80;;;;;;4994340;28;20061;-76
2021/01/29 01:58:33;;;;;;;32.47;3.90;;;13.00;95.90;;;;;;4995381;28;20073;-75
2021/01/29 02:00:59;;;;;;;28.23;3.75;;;12.90;95.80;;;;;;4995397;28;20050;-75
2021/01/29 02:03:29;;;;;;;33.30;4.03;;;12.70;95.60;;;;;;4995320;28;20402;-75
2021/01/29 02:05:57;;;;;;;36.88;4.53;;;12.80;95.50;;;;;;4995555;28;20034;-75
2021/01/29 02:08:25;;;;;;;34.47;4.28;;;12.70;95.60;;;;;;4995250;28;20050;-75
2021/01/29 02:10:51;;;;;;;30.15;3.85;;;12.70;95.60;;;;;;4995088;28;20126;-75
2021/01/29 02:13:17;;;;;;;28.08;4.38;;;12.60;95.50;;;;;;4995060;28;20069;-75
2021/01/29 02:15:51;;;;;;;30.50;3.80;;;12.60;95.50;;;;;;4995046;28;20510;-75
2021/01/29 02:18:50;;;;;;;34.10;4.32;;;12.60;95.40;;;;;;4995178;28;20180;-75
2021/01/29 02:21:31;;;;;;;31.25;4.10;;;12.60;95.50;;;;;;4994889;28;20073;-75
2021/01/29 02:24:39;;;;;;;33.45;3.92;;;12.90;95.60;;;;;;4993432;28;20056;-75
2021/01/29 02:27:13;;;;;;;35.47;4.20;;;12.70;95.60;;;;;;4994992;28;20057;-75
2021/01/29 02:29:48;;;;;;;29.40;3.97;;;12.90;95.40;;;;;;4995171;28;20038;-75
2021/01/29 02:32:32;;;;;;;;;;;12.80;95.30;;;;;;4995172;28;20042;-75
2021/01/29 02:35:23;;;;;;;26.10;3.67;;;12.90;95.40;;;;;;4994672;28;19952;-75
2021/01/29 02:38:16;;;;;;;32.13;4.45;;;12.80;95.40;;;;;;4994610;28;20502;-75
2021/01/29 02:41:11;;;;;;;30.15;4.07;;;12.70;95.30;;;;;;4994634;28;20124;-75
2021/01/29 02:43:48;;;;;;;26.30;3.70;;;12.60;95.60;;;;;;4994937;28;20035;-75
2021/01/29 02:46:29;;;;;;;27.33;3.88;;;12.90;95.30;;;;;;4993727;28;20038;-76
2021/01/29 02:49:00;;;;;;;32.47;4.63;;;12.50;95.30;;;;;;4973810;28;20063;-76
2021/01/29 02:51:47;;;;;;;36.85;4.30;;;12.50;95.20;;;;;;4975261;28;20053;-76
2021/01/29 02:54:29;;;;;;;28.90;3.60;;;12.60;95.00;;;;;;4976377;28;20046;-76
2021/01/29 02:57:06;;;;;;;26.58;3.92;;;12.50;94.90;;;;;;4981422;28;20108;-76
2021/01/29 02:59:34;;;;;;;28.55;4.18;;;12.50;94.90;;;;;;4981790;28;20073;-75
2021/01/29 03:02:11;;;;;;;30.27;4.28;;;12.60;94.90;;;;;;4981703;28;20043;-75
2021/01/29 03:04:53;;;;;;;23.98;3.63;;;12.70;94.90;;;;;;4981901;28;20494;-75
2021/01/29 03:07:26;;;;;;;26.80;4.07;;;12.50;94.90;;;;;;4981631;28;20035;-75
2021/01/29 03:09:54;;;;;;;28.35;3.92;;;12.60;95.00;;;;;;4981129;28;20121;-75
2021/01/29 03:12:26;;;;;;;29.95;4.38;;;12.60;95.00;;;;;;4981620;28;20503;-76
2021/01/29 03:15:07;;;;;;;28.17;3.30;;;12.40;94.70;;;;;;4981859;28;20039;-76
2021/01/29 03:17:46;;;;;;;32.13;3.67;;;12.60;94.70;;;;;;4981183;28;20389;-76
2021/01/29 03:20:32;;;;;;;28.30;3.63;;;12.40;94.60;;;;;;4981421;28;20113;-75
2021/01/29 03:23:07;;;;;;;35.67;4.38;;;12.70;94.70;;;;;;4981479;28;20066;-76
2021/01/29 03:25:38;;;;;;;27.17;3.92;;;12.70;94.60;;;;;;4981222;28;20045;-75
2021/01/29 03:28:09;;;;;;;33.33;3.53;;;12.80;94.60;;;;;;4981539;28;20042;-76
2021/01/29 03:30:40;;;;;;;28.70;3.95;;;12.50;94.30;;;;;;4980973;28;20056;-76
2021/01/29 03:33:10;;;;;;;31.52;3.90;;;12.30;94.20;;;;;;4981064;28;20039;-75
2021/01/29 03:36:05;;;;;;;26.50;3.97;;;12.40;94.40;;;;;;4981500;28;20070;-76
2021/01/29 03:38:45;;;;;;;27.88;3.50;;;12.30;94.50;;;;;;4981064;28;20174;-75
2021/01/29 03:41:27;;;;;;;34.88;4.25;;;12.30;94.60;;;;;;4981625;28;20041;-76
2021/01/29 03:44:08;;;;;;;30.50;4.03;;;12.30;94.50;;;;;;4981437;28;20027;-75
2021/01/29 03:46:37;;;;;;;31.42;4.18;;;12.60;94.60;;;;;;4981111;28;20049;-75
2021/01/29 03:49:22;;;;;;;26.25;3.90;;;12.60;94.40;;;;;;4988206;28;20136;-75
2021/01/29 03:51:59;;;;;;;36.70;4.32;;;12.40;94.40;;;;;;5000284;28;20137;-75
2021/01/29 03:54:28;;;;;;;31.92;4.28;;;12.30;94.40;;;;;;5000537;28;20081;-75
2021/01/29 03:57:19;;;;;;;32.45;4.20;;;12.50;94.50;;;;;;5000445;28;20121;-76
2021/01/29 03:59:58;;;;;;;29.88;4.05;;;12.50;94.40;;;;;;5000702;28;20038;-75
2021/01/29 04:02:32;;;;;;;31.63;4.05;;;12.60;94.40;;;;;;5000632;28;20081;-76
2021/01/29 04:05:17;;;;;;;24.42;3.42;;;12.60;94.30;;;;;;5001120;28;20097;-75
2021/01/29 04:08:22;;;;;;;26.40;3.67;;;12.50;94.30;;;;;;4996547;28;20113;-75
2021/01/29 04:10:51;;;;;;;27.70;3.85;;;12.60;94.40;;;;;;4986204;28;20166;-75
2021/01/29 04:13:23;;;;;;;35.20;3.85;;;12.60;94.40;;;;;;4997115;28;20030;-76
2021/01/29 04:15:51;;;;;;;35.75;4.35;;;12.60;94.40;;;;;;4997448;28;20049;-75
2021/01/29 04:18:23;;;;;;;32.22;4.22;;;12.40;94.30;;;;;;4997302;28;20030;-75
2021/01/29 04:21:17;;;;;;;32.78;4.20;;;12.70;94.30;;;;;;4997029;28;20074;-76
2021/01/29 04:24:05;;;;;;;37.08;4.75;;;12.60;94.20;;;;;;4996918;28;20485;-75
2021/01/29 04:26:38;;;;;;;35.30;4.50;;;12.80;94.20;;;;;;4997012;28;20490;-76
2021/01/29 04:29:11;;;;;;;37.42;4.75;;;12.50;94.20;;;;;;4997140;28;20066;-76
2021/01/29 04:31:39;;;;;;;37.28;4.13;;;12.60;94.20;;;;;;4996913;28;20054;-75
2021/01/29 04:34:27;;;;;;;38.03;4.38;;;12.70;94.20;;;;;;4996634;28;20124;-75
2021/01/29 04:36:56;;;;;;;37.63;5.03;;;12.60;94.10;;;;;;4996710;28;20061;-76
2021/01/29 04:39:40;;;;;;;41.88;4.97;;;12.60;94.00;;;;;;4997105;28;20544;-76
2021/01/29 04:42:29;;;;;;;30.85;4.95;;;12.60;94.00;;;;;;4995458;28;20137;-76
2021/01/29 04:45:25;;;;;;;33.35;4.22;;;12.60;94.10;;;;;;4996976;28;20048;-76
2021/01/29 04:48:06;;;;;;;28.30;4.00;;;12.40;94.10;;;;;;4996833;28;20035;-76
2021/01/29 04:51:02;;;;;;;31.23;4.07;;;12.80;94.20;;;;;;4994826;28;20054;-76
2021/01/29 04:53:32;;;;;;;35.58;4.20;;;12.80;94.10;;;;;;4994806;28;20526;-75
2021/01/29 04:56:00;;;;;;;33.03;4.32;;;12.70;94.10;;;;;;4996167;28;20299;-75
2021/01/29 04:58:30;;;;;;;35.75;4.57;;;12.90;94.10;;;;;;4996545;28;20034;-76
2021/01/29 05:01:35;;;;;;;31.13;4.13;;;12.60;94.10;;;;;;4996748;28;20173;-75
2021/01/29 05:04:29;;;;;;;31.35;4.15;;;12.60;94.10;;;;;;4996037;28;20521;-76
2021/01/29 05:07:13;;;;;;;26.25;4.03;;;12.80;94.10;;;;;;4995903;28;20038;-75
2021/01/29 05:10:03;;;;;;;29.48;4.13;;;12.60;94.00;;;;;;4996029;28;20038;-76
2021/01/29 05:12:47;;;;;;;30.42;3.95;;;12.60;94.00;;;;;;4996519;28;20042;-75
2021/01/29 05:15:47;;;;;;;33.90;4.03;;;12.40;93.90;;;;;;4996378;28;20039;-76
2021/01/29 05:18:57;;;;;;;32.80;4.00;;;12.50;93.80;;;;;;4985751;28;20096;-75
2021/01/29 05:22:00;;;;;;;31.25;4.28;;;12.80;93.90;;;;;;4994372;28;20045;-76
2021/01/29 05:24:37;;;;;;;29.80;3.95;;;12.80;93.90;;;;;;4996143;28;20038;-75
2021/01/29 05:27:29;;;;;;;28.40;3.58;;;12.50;93.80;;;;;;4995718;28;20486;-74
2021/01/29 05:30:09;;;;;;;31.70;3.33;;;12.80;93.80;;;;;;4995919;28;20035;-73
2021/01/29 05:33:20;;;;;;;26.80;3.97;;;12.60;93.90;;;;;;4989370;28;20057;-73
2021/01/29 05:36:22;;;;;;;29.58;3.67;;;12.80;93.90;;;;;;4990088;28;20065;-74
2021/01/29 05:39:11;;;;;;;29.65;3.55;;;12.80;94.10;;;;;;4985197;28;20532;-74
2021/01/29 05:41:58;;;;;;;29.42;3.42;;;13.00;93.90;;;;;;4976076;28;20038;-74
2021/01/29 05:44:56;;;;;;;26.45;3.75;;;12.70;93.80;;;;;;4975765;28;20483;-74
2021/01/29 05:47:43;;;;;;;26.17;3.40;;;12.40;93.80;;;;;;4975883;28;20065;-74
2021/01/29 05:50:16;;;;;;;26.90;3.90;;;12.70;93.80;;;;;;4976159;28;20138;-74
2021/01/29 05:53:00;;;;;;;25.85;3.95;;;12.60;93.90;;;;;;4976207;28;20174;-75
2021/01/29 05:55:30;;;;;;;32.53;3.85;;;12.60;94.00;;;;;;4976132;28;20070;-75
2021/01/29 05:58:35;;;;;;;30.50;3.60;;;12.50;93.80;;;;;;4976055;28;20038;-74
2021/01/29 06:01:33;;;;;;;27.55;3.60;;;12.60;93.70;;;;;;4976208;28;20047;-75
2021/01/29 06:04:18;;;;;;;29.27;3.80;;;12.40;93.50;;;;;;4970589;28;20031;-73
2021/01/29 06:07:21;;;;;;;32.95;4.38;;;12.50;93.50;;;;;;4976160;28;20051;-74
2021/01/29 06:10:23;;;;;;;31.70;4.15;;;12.10;93.50;;;;;;4979074;28;20041;-74
2021/01/29 06:13:08;;;;;;;33.63;3.78;;;12.00;93.40;;;;;;4993045;28;20038;-73
2021/01/29 06:15:40;;;;;;;20.63;3.20;;;12.20;93.50;;;;;;4993429;28;20121;-73
2021/01/29 06:18:20;;;;;;;36.28;4.15;;;12.20;93.60;;;;;;4992892;28;20100;-75
2021/01/29 06:21:09;;;;;;;33.22;3.75;;;11.80;93.50;;;;;;4993225;28;20046;-75
2021/01/29 06:23:58;;;;;;;29.27;3.85;;;12.20;93.70;;;;;;4993190;28;20053;-74
2021/01/29 06:26:51;;;;;;;25.60;3.58;;;11.90;93.70;;;;;;4993355;28;20030;-74
2021/01/29 06:29:54;;;;;;;26.38;3.60;;;12.50;93.60;;;;;;4993232;28;20049;-74
2021/01/29 06:32:29;;;;;;;26.48;4.05;;;12.20;93.40;;;;;;4993492;28;20038;-74
2021/01/29 06:35:06;;;;;;;40.45;4.38;;;11.90;93.50;;;;;;4992663;28;20140;-74
2021/01/29 06:37:47;;;;;;;30.92;4.35;;;11.90;93.50;;;;;;4992923;28;20073;-75
2021/01/29 06:40:32;;;;;;;32.60;3.95;;;12.00;93.50;;;;;;4993315;28;20046;-74
2021/01/29 06:43:11;;;;;;;32.50;4.05;;;12.20;93.60;;;;;;4992952;28;20038;-77
2021/01/29 06:45:57;;;;;;;36.13;4.22;;;12.20;93.60;;;;;;4993792;28;20046;-76
2021/01/29 06:49:04;;;;;;;29.02;3.55;;;12.50;93.60;;;;;;4993729;28;20062;-78
2021/01/29 06:51:57;;;;;;;36.05;4.40;;;12.30;93.60;;;;;;4895441;29;20052;-76
2021/01/29 06:54:50;;;;;;;35.63;4.38;;;12.30;93.60;;;;;;4994044;28;20034;-77
2021/01/29 06:57:44;;;;;;;34.17;4.07;;;12.30;93.50;;;;;;4993740;28;20035;-76
2021/01/29 07:00:22;;;;;;;31.10;4.30;;;12.30;93.30;;;;;;4993989;28;20117;-76
2021/01/29 07:03:02;;;;;;;30.88;3.80;;;12.20;93.20;;;;;;4991442;28;20043;-77
2021/01/29 07:05:58;;;;;;;26.30;3.95;;;12.20;93.40;;;;;;4992667;28;20042;-75
2021/01/29 07:09:03;;;;;;;32.85;4.20;;;12.20;93.50;;;;;;4992070;28;20047;-75
2021/01/29 07:11:50;;;;;;;36.97;4.25;;;12.00;93.50;;;;;;4938076;28;20049;-76
2021/01/29 07:14:38;;;;;;;34.30;4.40;;;12.20;93.50;;;;;;4991642;28;20042;-73
2021/01/29 07:17:19;;;;;;;29.77;3.78;;;12.30;93.50;;;;;;4992486;28;20042;-73
2021/01/29 07:20:15;;;;;;;27.15;3.47;;;12.10;93.30;;;;;;4992148;28;20038;-73
2021/01/29 07:22:53;;;;;;;34.08;4.10;;;12.20;93.40;;;;;;4991781;28;20034;-76
2021/01/29 07:25:49;;;;;;;24.98;3.40;;;12.20;93.30;;;;;;4991848;28;20398;-75
2021/01/29 07:28:47;;;;;;;31.38;3.50;;;12.20;93.50;;;;;;4985785;28;20041;-74
2021/01/29 07:31:20;;;;;;;29.60;4.25;;;12.40;93.50;;;;;;4993177;28;20517;-73
2021/01/29 07:33:54;;;;;;;21.80;3.25;;;12.20;93.50;;;;;;4992563;28;20514;-72
2021/01/29 07:36:58;;;;;;;27.38;3.13;;;12.50;93.50;;;;;;4993898;28;20042;-73
2021/01/29 07:39:53;;;;;;;25.67;3.47;;;12.60;93.40;;;;;;4972115;28;20038;-73
2021/01/29 07:42:45;;;;;;;24.60;3.05;;;12.40;93.30;;;;;;4988248;28;20127;-73
2021/01/29 07:45:34;;;;;;;27.25;3.53;;;12.50;93.20;;;;;;4997796;28;20517;-73
2021/01/29 07:48:22;;;;;;;29.30;3.72;;;12.30;93.30;;;;;;4997895;28;20027;-73
2021/01/29 07:51:01;;;;;;;30.25;4.35;;;12.50;93.30;;;;;;4997753;28;20047;-73
2021/01/29 07:54:15;;;;;;;31.00;3.67;;;12.40;93.30;;;;;;4997429;28;20045;-73
2021/01/29 07:57:13;;;;;;;31.50;4.30;;;12.70;93.20;;;;;;4984357;28;20038;-73
2021/01/29 07:59:57;;;;;;;28.45;4.10;;;12.80;93.20;;;;;;4997889;28;20044;-73
2021/01/29 08:02:56;;;;;;;34.70;4.23;;;12.70;93.20;;;;;;4997597;28;20114;-73
2021/01/29 08:05:25;;;;;;;31.73;5.03;;;12.60;92.90;;;;;;4997302;28;20262;-73
2021/01/29 08:08:14;;;;;;;32.70;4.70;;;12.60;92.90;;;;;;4997232;28;20062;-72
2021/01/29 08:10:44;;;;;;;28.23;4.65;;;12.70;93.00;;;;;;4997378;28;20046;-73
2021/01/29 08:13:39;;;;;;;31.45;4.65;;;12.90;92.90;;;;;;4997175;28;20096;-73
2021/01/29 08:16:33;;;;;;;30.52;4.65;;;13.00;92.90;;;;;;4966691;28;20046;-73
2021/01/29 08:19:08;;;;;;;27.42;4.38;;;12.90;93.00;;;;;;4997068;28;20072;-73
2021/01/29 08:21:39;;;;;;;32.63;4.47;;;12.80;92.90;;;;;;4997044;28;20070;-73
2021/01/29 08:24:38;;;;;;;28.58;4.20;;;12.90;92.80;;;;;;4997239;28;20074;-73
2021/01/29 08:27:42;;;;;;;27.90;4.05;;;13.20;92.80;;;;;;4997183;28;20498;-73
2021/01/29 08:30:26;;;;;;;26.58;3.67;;;13.20;92.70;;;;;;4996489;28;20509;-73
2021/01/29 08:33:03;;;;;;;35.45;5.07;;;13.30;92.50;;;;;;4997003;28;20041;-72
2021/01/29 08:36:06;;;;;;;33.50;3.53;;;13.20;92.20;;;;;;4997241;28;20049;-72
2021/01/29 08:38:37;;;;;;;26.90;4.13;;;13.40;92.20;;;;;;4997176;28;20031;-72
2021/01/29 08:41:14;;;;;;;26.48;3.22;;;14.30;92.10;;;;;;4996981;28;20042;-73
2021/01/29 08:44:15;;;;;;;20.02;2.90;;;15.30;91.30;;;;;;4996792;28;20146;-74
2021/01/29 08:46:58;;;;;;;17.55;3.38;;;16.30;90.10;;;;;;4988248;28;20454;-73
2021/01/29 08:49:50;;;;;;;18.98;2.78;;;17.30;87.40;;;;;;4996352;28;20054;-74
2021/01/29 08:52:31;;;;;;;18.83;3.30;;;18.00;85.00;;;;;;4995941;28;20474;-73
2021/01/29 08:55:41;;;;;;;21.90;5.10;;;18.40;81.60;;;;;;4996819;28;20039;-74
2021/01/29 08:58:41;;;;;;;19.50;4.13;;;18.80;81.20;;;;;;4996556;28;20038;-73
2021/01/29 09:01:37;;;;;;;19.90;4.60;;;19.40;78.90;;;;;;4996252;28;20073;-74
2021/01/29 09:04:05;;;;;;;;;;;20.10;77.00;;;;;;4997136;28;20532;-71
2021/01/29 09:06:42;;;;;;;24.75;6.88;;;20.10;77.80;;;;;;4996229;28;19910;-74
2021/01/29 09:09:21;;;;;;;17.80;3.72;;;20.30;74.40;;;;;;4996371;28;20045;-74
2021/01/29 09:11:50;;;;;;;20.33;4.78;;;19.70;73.70;;;;;;4996334;28;20109;-73
2021/01/29 09:14:35;;;;;;;21.15;3.55;;;19.50;74.20;;;;;;4996090;28;20038;-73
2021/01/29 09:17:20;;;;;;;23.13;5.43;;;19.40;73.90;;;;;;4996428;28;20042;-73
2021/01/29 09:19:58;;;;;;;19.55;4.30;;;19.60;74.10;;;;;;4996264;28;20046;-73
2021/01/29 09:22:37;;;;;;;19.75;3.78;;;20.30;74.20;;;;;;4978458;28;20042;-73
2021/01/29 09:25:31;;;;;;;19.73;5.10;;;20.30;73.00;;;;;;4995987;28;20085;-74
2021/01/29 09:28:28;;;;;;;22.30;4.43;;;20.90;72.60;;;;;;4996339;28;20121;-73
2021/01/29 09:31:24;;;;;;;21.02;5.53;;;21.40;74.90;;;;;;4995443;28;20082;-74
2021/01/29 09:34:05;;;;;;;22.67;5.70;;;21.70;71.60;;;;;;4995613;28;20398;-73
2021/01/29 09:36:53;;;;;;;19.63;3.65;;;21.90;73.40;;;;;;4995664;28;20074;-74
2021/01/29 09:39:30;;;;;;;21.63;4.88;;;22.10;71.40;;;;;;4995534;28;20046;-73
2021/01/29 09:42:10;;;;;;;19.33;4.85;;;21.60;71.80;;;;;;4995767;28;20128;-74
2021/01/29 09:45:06;;;;;;;17.90;4.20;;;21.00;72.10;;;;;;4995350;28;20489;-74
2021/01/29 09:47:40;;;;;;;22.33;4.18;;;20.40;71.20;;;;;;4995497;28;20065;-74
2021/01/29 09:50:09;;;;;;;17.85;3.90;;;20.00;73.50;;;;;;4995571;28;20054;-73
2021/01/29 09:53:04;;;;;;;17.67;3.58;;;20.10;74.20;;;;;;4995510;28;20038;-73
2021/01/29 09:55:39;;;;;;;19.38;3.53;;;19.20;75.60;;;;;;4995835;28;20046;-74
2021/01/29 09:58:23;;;;;;;15.13;3.47;;;19.10;77.10;;;;;;4995482;28;20142;-73
2021/01/29 10:01:21;;;;;;;19.23;3.53;;;19.00;76.40;;;;;;4995649;28;20042;-73
2021/01/29 10:03:56;;;;;;;16.00;3.38;;;19.00;80.00;;;;;;4983275;28;20038;-74
2021/01/29 10:06:55;;;;;;;24.65;4.00;;;18.40;78.30;;;;;;4995080;28;20042;-73
2021/01/29 10:09:27;;;;;;;19.70;3.60;;;18.60;79.10;;;;;;4995448;28;20038;-74
2021/01/29 10:12:07;;;;;;;19.63;3.22;;;18.50;79.00;;;;;;4995131;28;20489;-73
2021/01/29 10:15:01;;;;;;;22.38;3.97;;;18.20;78.00;;;;;;4995706;28;20042;-73
2021/01/29 10:17:54;;;;;;;21.25;3.50;;;18.20;78.60;;;;;;4995267;28;20042;-74
2021/01/29 10:20:27;;;;;;;23.02;3.70;;;17.90;79.00;;;;;;4995553;28;20092;-74
2021/01/29 10:23:27;;;;;;;19.02;3.88;;;17.70;79.50;;;;;;4995274;28;20069;-73
2021/01/29 10:26:01;;;;;;;20.27;3.80;;;17.50;78.90;;;;;;4995550;28;20046;-73
2021/01/29 10:28:58;;;;;;;20.20;3.97;;;17.80;79.30;;;;;;4995493;28;20034;-74
2021/01/29 10:31:25;;;;;;;19.08;3.42;;;17.60;78.30;;;;;;4995175;28;20038;-73
2021/01/29 10:34:22;;;;;;;20.10;4.50;;;17.60;79.00;;;;;;4994882;28;20038;-74
2021/01/29 10:37:22;;;;;;;25.95;3.90;;;17.40;79.50;;;;;;4994109;28;20133;-73
2021/01/29 10:40:15;;;;;;;26.80;5.78;;;16.90;77.90;;;;;;4992025;28;20038;-73
2021/01/29 10:43:02;;;;;;;21.90;4.60;;;17.10;80.00;;;;;;4967561;28;20042;-74
2021/01/29 10:46:04;;;;;;;24.45;5.57;;;17.10;78.30;;;;;;4994722;28;20042;-74
2021/01/29 10:48:49;;;;;;;28.05;7.45;;;17.20;78.70;;;;;;4994647;28;20447;-74
2021/01/29 10:51:24;;;;;;;29.55;8.05;;;17.40;78.40;;;;;;4994514;28;20122;-74
2021/01/29 10:53:59;;;;;;;38.25;11.10;;;17.10;79.30;;;;;;4994966;28;20056;-73
2021/01/29 10:56:37;;;;;;;25.40;4.07;;;17.20;78.70;;;;;;4994789;28;20053;-73
2021/01/29 10:59:31;;;;;;;27.90;6.90;;;17.20;79.60;;;;;;4994726;28;20096;-73
2021/01/29 11:02:03;;;;;;;24.02;3.65;;;17.30;78.30;;;;;;4994460;28;20525;-73
2021/01/29 11:04:37;;;;;;;20.02;4.18;;;17.10;78.80;;;;;;4994514;28;20544;-73
2021/01/29 11:07:18;;;;;;;37.70;9.93;;;17.50;77.90;;;;;;4994376;28;20125;-73
2021/01/29 11:09:57;;;;;;;32.40;10.43;;;17.30;78.60;;;;;;4994080;28;20518;-74
2021/01/29 11:12:38;;;;;;;29.80;9.00;;;17.50;77.50;;;;;;4994468;28;20069;-74
2021/01/29 11:15:23;;;;;;;28.92;6.32;;;17.90;77.50;;;;;;4994625;28;20074;-73
2021/01/29 11:18:13;;;;;;;25.25;5.43;;;17.80;78.50;;;;;;4998476;28;20038;-73
2021/01/29 11:20:41;;;;;;;26.48;6.28;;;17.50;77.10;;;;;;4997575;28;20054;-73
2021/01/29 11:23:12;;;;;;;23.63;4.50;;;17.80;77.40;;;;;;4998187;28;20038;-74
2021/01/29 11:25:53;;;;;;;22.15;4.30;;;17.70;76.90;;;;;;4998266;28;20529;-73
2021/01/29 11:28:41;;;;;;;24.52;4.90;;;17.20;77.30;;;;;;4998089;28;20041;-74
2021/01/29 11:31:31;;;;;;;24.95;4.05;;;17.40;75.90;;;;;;4998043;28;20129;-74
2021/01/29 11:33:59;;;;;;;23.13;4.18;;;17.30;75.50;;;;;;4997738;28;20042;-73
2021/01/29 11:36:29;;;;;;;20.08;3.45;;;17.40;76.20;;;;;;4998077;28;20563;-73
2021/01/29 11:39:02;;;;;;;22.52;4.38;;;17.80;76.10;;;;;;4997682;28;20026;-73
2021/01/29 11:41:51;;;;;;;26.60;6.40;;;17.70;76.00;;;;;;4997727;28;20046;-73
2021/01/29 11:44:31;;;;;;;31.17;9.30;;;17.60;75.10;;;;;;4998160;28;20089;-73
2021/01/29 11:47:00;;;;;;;28.17;5.68;;;17.70;75.50;;;;;;4997402;28;20117;-74
2021/01/29 11:49:47;;;;;;;24.50;4.90;;;17.90;76.00;;;;;;4997542;28;20133;-74
2021/01/29 11:52:43;;;;;;;25.25;4.32;;;17.80;76.20;;;;;;4997929;28;20474;-73
2021/01/29 11:55:19;;;;;;;24.38;3.85;;;17.90;75.30;;;;;;4997856;28;20343;-73
2021/01/29 11:57:59;;;;;;;22.27;3.92;;;17.70;74.90;;;;;;4997860;28;20046;-73
2021/01/29 12:00:42;;;;;;;18.83;3.78;;;17.60;74.70;;;;;;4997626;28;20046;-73
2021/01/29 12:03:46;;;;;;;21.83;3.95;;;17.70;75.90;;;;;;4997990;28;20065;-73
2021/01/29 12:06:22;;;;;;;26.73;4.32;;;17.40;75.00;;;;;;4937194;29;20078;-74
2021/01/29 12:09:08;;;;;;;25.48;4.28;;;17.90;74.00;;;;;;4990370;28;20046;-73
2021/01/29 12:12:24;;;;;;;20.02;3.83;;;18.00;74.10;;;;;;4997368;28;20046;-74
2021/01/29 12:15:02;;;;;;;20.10;3.10;;;18.00;74.20;;;;;;4964153;28;20038;-73
2021/01/29 12:17:31;;;;;;;17.48;3.03;;;17.80;73.40;;;;;;4997296;28;20038;-74
2021/01/29 12:20:10;;;;;;;17.88;3.60;;;18.00;74.30;;;;;;4997697;28;20037;-74
2021/01/29 12:22:49;;;;;;;18.30;3.50;;;18.00;72.90;;;;;;4997108;28;20050;-74
2021/01/29 12:25:18;;;;;;;17.58;3.05;;;18.00;74.50;;;;;;4995543;28;20042;-73
2021/01/29 12:27:50;;;;;;;17.85;2.83;;;17.90;73.10;;;;;;4992990;28;20490;-73
2021/01/29 12:30:27;;;;;;;18.50;3.05;;;17.50;73.40;;;;;;4993703;28;20572;-73
2021/01/29 12:33:18;;;;;;;17.80;2.90;;;17.30;73.50;;;;;;4995576;28;20057;-73
2021/01/29 12:35:57;;;;;;;16.48;3.20;;;17.40;72.80;;;;;;4988025;28;20038;-73
2021/01/29 12:39:02;;;;;;;21.05;3.60;;;17.40;73.00;;;;;;4993106;28;20084;-73
2021/01/29 12:41:47;;;;;;;17.93;3.40;;;17.00;74.10;;;;;;4994215;28;20046;-72
2021/01/29 12:44:42;;;;;;;16.98;2.50;;;17.50;73.10;;;;;;4995388;28;20042;-72
2021/01/29 12:47:35;;;;;;;20.73;3.58;;;17.20;73.70;;;;;;4974444;28;20505;-71
2021/01/29 12:50:39;;;;;;;19.42;3.60;;;17.30;72.40;;;;;;4994877;28;20121;-71
2021/01/29 12:53:40;;;;;;;17.52;3.42;;;17.40;72.80;;;;;;4993116;28;20121;-72
2021/01/29 12:56:06;;;;;;;21.15;3.63;;;17.40;72.90;;;;;;4994662;28;20054;-73
2021/01/29 12:58:39;;;;;;;22.35;3.38;;;17.40;73.00;;;;;;4992490;28;20100;-73
2021/01/29 13:01:08;;;;;;;22.05;3.65;;;17.30;73.00;;;;;;5000432;28;20053;-72
2021/01/29 13:03:40;;;;;;;20.13;3.75;;;17.40;72.90;;;;;;5015888;28;20056;-73
2021/01/29 13:06:30;;;;;;;20.02;3.03;;;17.20;73.40;;;;;;5015297;28;20412;-73
2021/01/29 13:09:33;;;;;;;21.20;4.68;;;17.40;72.00;;;;;;5002777;28;20041;-72
2021/01/29 13:12:37;;;;;;;25.20;5.28;;;17.50;72.60;;;;;;4995452;28;20129;-73
2021/01/29 13:15:24;;;;;;;23.65;5.78;;;17.10;72.70;;;;;;4992178;28;20038;-72
2021/01/29 13:18:18;;;;;;;22.35;4.03;;;17.40;73.10;;;;;;4994147;28;20042;-73
2021/01/29 13:20:48;;;;;;;21.50;4.35;;;17.30;73.40;;;;;;4976704;28;20471;-72
2021/01/29 13:23:32;;;;;;;16.38;3.05;;;17.20;73.30;;;;;;4993513;28;20133;-73
2021/01/29 13:26:12;;;;;;;21.13;3.15;;;17.00;74.00;;;;;;4995366;28;20042;-73
2021/01/29 13:29:04;;;;;;;17.77;2.92;;;17.10;72.40;;;;;;4995287;28;20100;-72
2021/01/29 13:31:37;;;;;;;19.85;3.20;;;17.20;72.60;;;;;;4995207;28;20060;-73
2021/01/29 13:34:29;;;;;;;22.15;3.67;;;17.80;73.30;;;;;;4995576;28;20034;-73
2021/01/29 13:37:07;;;;;;;24.25;4.20;;;17.60;73.40;;;;;;4986410;28;20056;-73
2021/01/29 13:39:41;;;;;;;21.23;4.32;;;17.60;71.80;;;;;;4995116;28;20042;-74
2021/01/29 13:42:18;;;;;;;17.25;3.17;;;17.70;72.30;;;;;;4995394;28;20482;-72
2021/01/29 13:44:47;;;;;;;22.38;4.13;;;17.80;71.80;;;;;;4994990;28;20211;-73
2021/01/29 13:47:29;;;;;;;22.58;3.55;;;17.50;72.40;;;;;;4995324;28;20034;-73
2021/01/29 13:49:57;;;;;;;19.70;3.15;;;17.60;71.40;;;;;;4994938;28;20144;-73